Historique des mesures à Cassis (13260), France
Quotidien Résumé Mars 4, 2017 Unités:  US    Métrique   Métrique/US
« Précédent (Jour)
Suivant (Jour) »
Quotidien Hebdomadaire Mensuel Annuel Période au choix
  Maximum: Minimum: Moyenne:
Température: 32 °F 49.8 °F 51.8 °F
Point de rosée: 32 °F 42.3 °F 44.1 °F
Humidité: Humidity % 67 % 72 %
Vitesse du vent: WindSpeedKMH mph 0.0 mph 5.8 mph
Rafales: WindSpeedGustKMH mph - -
Vent:- - South
Pression: 0 in 29.3 in -
Précipitations: 497.84 in    
Historical Graphs
 
 
Mesures pour : Mars 4, 2017
Heure Temperature Point de rosée Pression Vent Vitesse du vent Rafales Humidité Pluie (par heure) Conditions
32 °F 32 °F 0 in Calm     Humidity % 0 in SoftwareType W/m2
00:11 56.3 °F 45.9 °F 29.6 in Calm   16.9 mph 68 % 0 in open2300-1.11 W/m2
01:10 56.5 °F 45.7 °F 29.6 in SE 5.8 mph 5.8 mph 67 % 0 in open2300-1.11 W/m2
02:11 56.5 °F 46 °F 29.6 in ESE 6.8 mph 6.8 mph 68 % 0 in open2300-1.11 W/m2
03:10 56.3 °F 45.5 °F 29.5 in SE 6.8 mph 16.3 mph 67 % 0 in open2300-1.11 W/m2
04:11 56.5 °F 45.7 °F 29.4 in East 18.7 mph 26.5 mph 67 % 0 in open2300-1.11 W/m2
05:10 55.2 °F 46.9 °F 29.3 in SE 5.8 mph 14.8 mph 74 % 12.7 in open2300-1.11 W/m2
06:11 53.1 °F 47.7 °F 29.3 in North 6.4 mph 34.6 mph 82 % 91.44 in open2300-1.11 W/m2
07:10 52 °F 46.9 °F 29.4 in South 14.3 mph 14.3 mph 83 % 213.36 in open2300-1.11 W/m2
08:11 52.9 °F 47.5 °F 29.4 in SW 6.1 mph 6.1 mph 82 % 0 in open2300-1.11 W/m2
09:10 52.5 °F 45.9 °F 29.4 in SSE 11.1 mph 20.9 mph 78 % 12.7 in open2300-1.11 W/m2
10:11 50.7 °F 45.1 °F 29.4 in WNW 5.0 mph 10.5 mph 81 % 0 in open2300-1.11 W/m2
11:10 50.4 °F 44.1 °F 29.5 in South 14.8 mph 14.8 mph 79 % 0 in open2300-1.11 W/m2
12:11 50 °F 43.3 °F 29.5 in SSW 5.8 mph 5.8 mph 78 % 0 in open2300-1.11 W/m2
13:10 51.4 °F 44.4 °F 29.5 in SSW 8.7 mph 11.6 mph 77 % 12.7 in open2300-1.11 W/m2
14:11 52.3 °F 44.1 °F 29.6 in NNW 9.0 mph 11.1 mph 73 % 0 in open2300-1.11 W/m2
15:10 51.1 °F 44.1 °F 29.6 in NW 2.6 mph 8.2 mph 77 % 63.5 in open2300-1.11 W/m2
16:11 51.8 °F 44.4 °F 29.6 in WNW 2.9 mph 9.7 mph 76 % 76.2 in open2300-1.11 W/m2
17:10 52.3 °F 42.4 °F 29.6 in WNW 7.6 mph 7.9 mph 69 % 0 in open2300-1.11 W/m2
18:11 52.3 °F 42.4 °F 29.6 in Calm   6.1 mph 69 % 0 in open2300-1.11 W/m2
19:10 52 °F 43 °F 29.6 in Calm   1.1 mph 71 % 0 in open2300-1.11 W/m2
20:11 50.2 °F 42.3 °F 29.7 in Calm     74 % 0 in open2300-1.11 W/m2
21:10 49.8 °F 42.3 °F 29.7 in Calm     75 % 0 in open2300-1.11 W/m2
22:11 50 °F 43 °F 29.7 in NNE 1.4 mph 1.4 mph 77 % 0 in open2300-1.11 W/m2
23:10 50.5 °F 43.2 °F 29.7 in WNW 5.5 mph 5.5 mph 76 % 12.7 in open2300-1.11 W/m2
Observations météo à CASSIS
WU-History script by Weather Underground - 1 mb